sensor_id;sensor_type;location;lat;lon;timestamp;pressure;altitude;pressure_sealevel;temperature;humidity
11523;BME280;40093;43.224;27.910;2022-07-19T00:02:01;101101.56;;;19.98;81.52
11523;BME280;40093;43.224;27.910;2022-07-19T00:04:28;101084.28;;;20.03;81.06
11523;BME280;40093;43.224;27.910;2022-07-19T00:06:55;101096.16;;;20.10;81.02
11523;BME280;40093;43.224;27.910;2022-07-19T00:09:22;101092.03;;;20.18;80.20
11523;BME280;40093;43.224;27.910;2022-07-19T00:11:49;101097.66;;;20.15;79.63
11523;BME280;40093;43.224;27.910;2022-07-19T00:14:17;101087.47;;;20.05;80.37
11523;BME280;40093;43.224;27.910;2022-07-19T00:16:44;101087.69;;;19.91;81.45
11523;BME280;40093;43.224;27.910;2022-07-19T00:19:11;101096.31;;;19.77;82.59
11523;BME280;40093;43.224;27.910;2022-07-19T00:21:38;101088.66;;;19.81;82.68
11523;BME280;40093;43.224;27.910;2022-07-19T00:24:05;101098.19;;;19.83;82.63
11523;BME280;40093;43.224;27.910;2022-07-19T00:26:32;101087.50;;;19.78;82.02
11523;BME280;40093;43.224;27.910;2022-07-19T00:29:00;101093.28;;;19.91;81.95
11523;BME280;40093;43.224;27.910;2022-07-19T00:31:29;101094.13;;;19.88;81.82
11523;BME280;40093;43.224;27.910;2022-07-19T00:33:56;101087.19;;;19.73;82.44
11523;BME280;40093;43.224;27.910;2022-07-19T00:36:23;101087.44;;;19.82;82.28
11523;BME280;40093;43.224;27.910;2022-07-19T00:38:50;101092.50;;;19.64;83.55
11523;BME280;40093;43.224;27.910;2022-07-19T00:41:17;101094.84;;;19.69;83.65
11523;BME280;40093;43.224;27.910;2022-07-19T00:43:44;101080.88;;;19.69;83.37
11523;BME280;40093;43.224;27.910;2022-07-19T00:46:14;101083.72;;;19.65;83.45
11523;BME280;40093;43.224;27.910;2022-07-19T00:48:43;101085.59;;;19.72;83.58
11523;BME280;40093;43.224;27.910;2022-07-19T00:51:12;101088.66;;;19.81;82.94
11523;BME280;40093;43.224;27.910;2022-07-19T00:53:41;101079.81;;;19.86;82.83
11523;BME280;40093;43.224;27.910;2022-07-19T00:56:09;101079.06;;;19.82;83.27
11523;BME280;40093;43.224;27.910;2022-07-19T00:58:39;101088.75;;;19.74;83.03
11523;BME280;40093;43.224;27.910;2022-07-19T01:01:07;101085.25;;;19.70;83.49
11523;BME280;40093;43.224;27.910;2022-07-19T01:03:36;101087.53;;;19.75;83.63
11523;BME280;40093;43.224;27.910;2022-07-19T01:06:06;101081.34;;;19.64;84.35
11523;BME280;40093;43.224;27.910;2022-07-19T01:08:34;101081.97;;;19.75;84.19
11523;BME280;40093;43.224;27.910;2022-07-19T01:11:03;101079.00;;;19.85;83.72
11523;BME280;40093;43.224;27.910;2022-07-19T01:13:30;101078.19;;;19.85;83.47
11523;BME280;40093;43.224;27.910;2022-07-19T01:15:57;101077.72;;;19.90;83.44
11523;BME280;40093;43.224;27.910;2022-07-19T01:18:24;101076.16;;;19.66;84.48
11523;BME280;40093;43.224;27.910;2022-07-19T01:20:52;101077.81;;;19.60;84.82
11523;BME280;40093;43.224;27.910;2022-07-19T01:23:20;101074.56;;;19.65;84.85
11523;BME280;40093;43.224;27.910;2022-07-19T01:25:47;101067.31;;;19.67;85.04
11523;BME280;40093;43.224;27.910;2022-07-19T01:28:14;101075.28;;;19.69;84.96
11523;BME280;40093;43.224;27.910;2022-07-19T01:30:41;101070.78;;;19.75;84.72
11523;BME280;40093;43.224;27.910;2022-07-19T01:33:08;101075.28;;;19.69;84.64
11523;BME280;40093;43.224;27.910;2022-07-19T01:35:35;101074.44;;;19.72;83.96
11523;BME280;40093;43.224;27.910;2022-07-19T01:38:02;101069.72;;;19.69;83.58
11523;BME280;40093;43.224;27.910;2022-07-19T01:40:30;101069.00;;;19.65;83.52
11523;BME280;40093;43.224;27.910;2022-07-19T01:42:58;101065.19;;;19.52;83.99
11523;BME280;40093;43.224;27.910;2022-07-19T01:45:25;101067.25;;;19.48;84.17
11523;BME280;40093;43.224;27.910;2022-07-19T01:47:52;101071.97;;;19.51;84.22
11523;BME280;40093;43.224;27.910;2022-07-19T01:50:19;101066.03;;;19.49;83.84
11523;BME280;40093;43.224;27.910;2022-07-19T01:52:46;101068.56;;;19.40;84.24
11523;BME280;40093;43.224;27.910;2022-07-19T01:55:13;101067.00;;;19.39;84.92
11523;BME280;40093;43.224;27.910;2022-07-19T01:57:41;101066.03;;;19.49;84.03
11523;BME280;40093;43.224;27.910;2022-07-19T02:00:09;101060.44;;;19.49;82.76
11523;BME280;40093;43.224;27.910;2022-07-19T02:02:36;101063.41;;;19.65;81.49
11523;BME280;40093;43.224;27.910;2022-07-19T02:05:03;101060.34;;;19.56;80.88
11523;BME280;40093;43.224;27.910;2022-07-19T02:07:30;101056.19;;;19.41;80.08
11523;BME280;40093;43.224;27.910;2022-07-19T02:09:57;101059.56;;;19.29;80.19
11523;BME280;40093;43.224;27.910;2022-07-19T02:12:24;101065.19;;;19.25;80.42
11523;BME280;40093;43.224;27.910;2022-07-19T02:14:52;101067.94;;;19.29;80.53
11523;BME280;40093;43.224;27.910;2022-07-19T02:17:19;101062.34;;;19.29;80.81
11523;BME280;40093;43.224;27.910;2022-07-19T02:19:46;101058.72;;;19.32;80.69
11523;BME280;40093;43.224;27.910;2022-07-19T02:22:13;101065.91;;;19.33;81.10
11523;BME280;40093;43.224;27.910;2022-07-19T02:24:40;101068.94;;;19.42;81.18
11523;BME280;40093;43.224;27.910;2022-07-19T02:27:09;101057.25;;;19.24;81.93
11523;BME280;40093;43.224;27.910;2022-07-19T02:29:36;101064.97;;;19.13;82.83
11523;BME280;40093;43.224;27.910;2022-07-19T02:32:06;101057.72;;;19.15;83.00
11523;BME280;40093;43.224;27.910;2022-07-19T02:34:33;101066.53;;;19.14;83.62
11523;BME280;40093;43.224;27.910;2022-07-19T02:37:01;101066.78;;;18.96;84.46
11523;BME280;40093;43.224;27.910;2022-07-19T02:39:28;101065.47;;;18.74;86.10
11523;BME280;40093;43.224;27.910;2022-07-19T02:41:55;101068.53;;;18.83;86.24
11523;BME280;40093;43.224;27.910;2022-07-19T02:44:22;101065.53;;;18.71;86.68
11523;BME280;40093;43.224;27.910;2022-07-19T02:46:48;101065.47;;;18.74;86.73
11523;BME280;40093;43.224;27.910;2022-07-19T02:49:17;101076.75;;;18.64;87.36
11523;BME280;40093;43.224;27.910;2022-07-19T02:51:44;101076.56;;;18.78;87.38
11523;BME280;40093;43.224;27.910;2022-07-19T02:54:11;101078.31;;;18.65;87.68
11523;BME280;40093;43.224;27.910;2022-07-19T02:56:38;101083.91;;;18.65;87.88
11523;BME280;40093;43.224;27.910;2022-07-19T02:59:05;101077.34;;;18.82;87.53
11523;BME280;40093;43.224;27.910;2022-07-19T03:01:32;101078.84;;;18.90;87.07
11523;BME280;40093;43.224;27.910;2022-07-19T03:03:59;101074.91;;;18.84;87.40
11523;BME280;40093;43.224;27.910;2022-07-19T03:06:27;101081.09;;;18.98;87.02
11523;BME280;40093;43.224;27.910;2022-07-19T03:08:54;101083.13;;;18.94;87.15
11523;BME280;40093;43.224;27.910;2022-07-19T03:11:21;101081.44;;;19.04;86.92
11523;BME280;40093;43.224;27.910;2022-07-19T03:13:48;101075.56;;;18.95;87.70
11523;BME280;40093;43.224;27.910;2022-07-19T03:16:15;101080.59;;;19.37;87.07
11523;BME280;40093;43.224;27.910;2022-07-19T03:18:42;101080.91;;;20.15;81.37
11523;BME280;40093;43.224;27.910;2022-07-19T03:21:09;101080.56;;;20.94;76.47
11523;BME280;40093;43.224;27.910;2022-07-19T03:23:37;101086.03;;;21.52;72.02
11523;BME280;40093;43.224;27.910;2022-07-19T03:26:05;101082.66;;;22.09;69.43
11523;BME280;40093;43.224;27.910;2022-07-19T03:28:32;101076.44;;;22.46;66.98
11523;BME280;40093;43.224;27.910;2022-07-19T03:30:59;101086.41;;;22.63;65.58
11523;BME280;40093;43.224;27.910;2022-07-19T03:33:26;101076.13;;;22.85;63.73
11523;BME280;40093;43.224;27.910;2022-07-19T03:35:53;101081.88;;;23.34;62.07
11523;BME280;40093;43.224;27.910;2022-07-19T03:38:20;101077.81;;;23.73;60.29
11523;BME280;40093;43.224;27.910;2022-07-19T03:40:48;101075.06;;;24.41;57.48
11523;BME280;40093;43.224;27.910;2022-07-19T03:43:15;101081.56;;;24.50;56.36
11523;BME280;40093;43.224;27.910;2022-07-19T03:45:43;101087.41;;;24.99;54.55
11523;BME280;40093;43.224;27.910;2022-07-19T03:48:10;101084.38;;;25.15;54.15
11523;BME280;40093;43.224;27.910;2022-07-19T03:50:37;101085.16;;;25.85;52.06
11523;BME280;40093;43.224;27.910;2022-07-19T03:53:05;101095.13;;;26.07;50.62
11523;BME280;40093;43.224;27.910;2022-07-19T03:55:32;101097.63;;;26.23;50.23
11523;BME280;40093;43.224;27.910;2022-07-19T03:58:00;101087.66;;;26.58;49.33
11523;BME280;40093;43.224;27.910;2022-07-19T04:00:27;101084.03;;;26.76;48.04
11523;BME280;40093;43.224;27.910;2022-07-19T04:02:54;101084.13;;;27.08;47.22
11523;BME280;40093;43.224;27.910;2022-07-19T04:05:21;101083.50;;;27.04;47.53
11523;BME280;40093;43.224;27.910;2022-07-19T04:07:48;101084.97;;;27.41;46.35
11523;BME280;40093;43.224;27.910;2022-07-19T04:10:15;101081.72;;;27.34;46.20
11523;BME280;40093;43.224;27.910;2022-07-19T04:12:42;101088.31;;;27.72;45.95
11523;BME280;40093;43.224;27.910;2022-07-19T04:15:10;101085.59;;;28.10;45.01
11523;BME280;40093;43.224;27.910;2022-07-19T04:17:37;101089.25;;;28.49;43.59
11523;BME280;40093;43.224;27.910;2022-07-19T04:20:05;101090.16;;;28.92;42.54
11523;BME280;40093;43.224;27.910;2022-07-19T04:22:32;101089.97;;;28.96;42.05
11523;BME280;40093;43.224;27.910;2022-07-19T04:25:00;101097.47;;;28.99;41.93
11523;BME280;40093;43.224;27.910;2022-07-19T04:27:28;101089.88;;;28.67;42.08
11523;BME280;40093;43.224;27.910;2022-07-19T04:29:55;101099.03;;;29.00;41.93
11523;BME280;40093;43.224;27.910;2022-07-19T04:32:24;101097.56;;;29.19;41.40
11523;BME280;40093;43.224;27.910;2022-07-19T04:34:51;101095.81;;;29.36;40.82
11523;BME280;40093;43.224;27.910;2022-07-19T04:37:18;101100.41;;;29.19;40.87
11523;BME280;40093;43.224;27.910;2022-07-19T04:39:45;101090.31;;;29.47;40.24
11523;BME280;40093;43.224;27.910;2022-07-19T04:42:12;101087.59;;;29.67;40.29
11523;BME280;40093;43.224;27.910;2022-07-19T04:44:42;101085.59;;;29.73;40.00
11523;BME280;40093;43.224;27.910;2022-07-19T04:47:13;101092.25;;;29.70;39.90
11523;BME280;40093;43.224;27.910;2022-07-19T04:49:41;101101.78;;;29.38;40.71
11523;BME280;40093;43.224;27.910;2022-07-19T04:52:08;101100.72;;;29.84;39.60
11523;BME280;40093;43.224;27.910;2022-07-19T04:54:35;101079.56;;;29.51;40.20
11523;BME280;40093;43.224;27.910;2022-07-19T04:57:02;101097.75;;;30.28;39.15
11523;BME280;40093;43.224;27.910;2022-07-19T04:59:29;101100.63;;;30.53;38.43
11523;BME280;40093;43.224;27.910;2022-07-19T05:01:56;101100.22;;;30.80;38.10
11523;BME280;40093;43.224;27.910;2022-07-19T05:04:23;101102.66;;;30.93;37.66
11523;BME280;40093;43.224;27.910;2022-07-19T05:06:52;101107.78;;;30.89;37.91
11523;BME280;40093;43.224;27.910;2022-07-19T05:09:22;101111.13;;;31.13;36.99
11523;BME280;40093;43.224;27.910;2022-07-19T05:11:49;101093.53;;;31.34;36.90
11523;BME280;40093;43.224;27.910;2022-07-19T05:14:16;101107.69;;;31.29;37.03
11523;BME280;40093;43.224;27.910;2022-07-19T05:16:43;101092.53;;;31.43;36.94
11523;BME280;40093;43.224;27.910;2022-07-19T05:19:11;101103.34;;;31.64;37.11
11523;BME280;40093;43.224;27.910;2022-07-19T05:21:38;101078.41;;;31.53;37.17
11523;BME280;40093;43.224;27.910;2022-07-19T05:24:06;101098.94;;;31.99;36.44
11523;BME280;40093;43.224;27.910;2022-07-19T05:26:33;101091.56;;;31.82;35.83
11523;BME280;40093;43.224;27.910;2022-07-19T05:29:01;101113.22;;;31.68;36.60
11523;BME280;40093;43.224;27.910;2022-07-19T05:31:28;101092.00;;;31.69;36.77
11523;BME280;40093;43.224;27.910;2022-07-19T05:33:55;101107.00;;;32.12;36.47
11523;BME280;40093;43.224;27.910;2022-07-19T05:36:21;101105.09;;;32.34;35.68
11523;BME280;40093;43.224;27.910;2022-07-19T05:38:48;101103.91;;;32.68;35.02
11523;BME280;40093;43.224;27.910;2022-07-19T05:41:17;101107.34;;;32.83;34.79
11523;BME280;40093;43.224;27.910;2022-07-19T05:43:47;101106.13;;;33.17;34.44
11523;BME280;40093;43.224;27.910;2022-07-19T05:46:15;101102.25;;;33.42;33.88
11523;BME280;40093;43.224;27.910;2022-07-19T05:48:42;101099.66;;;33.55;33.46
11523;BME280;40093;43.224;27.910;2022-07-19T05:51:09;101103.00;;;33.92;33.27
11523;BME280;40093;43.224;27.910;2022-07-19T05:53:36;101095.25;;;33.54;32.80
11523;BME280;40093;43.224;27.910;2022-07-19T05:56:04;101087.44;;;33.71;32.57
11523;BME280;40093;43.224;27.910;2022-07-19T05:58:33;101094.47;;;33.59;27.60
11523;BME280;40093;43.224;27.910;2022-07-19T06:01:00;101101.19;;;33.67;29.31
11523;BME280;40093;43.224;27.910;2022-07-19T06:03:45;101099.81;;;34.12;29.38
11523;BME280;40093;43.224;27.910;2022-07-19T06:06:13;101092.63;;;33.89;25.26
11523;BME280;40093;43.224;27.910;2022-07-19T06:08:41;101074.41;;;34.09;25.69
11523;BME280;40093;43.224;27.910;2022-07-19T06:11:08;101092.38;;;33.65;24.62
11523;BME280;40093;43.224;27.910;2022-07-19T06:13:37;101095.22;;;33.87;24.30
11523;BME280;40093;43.224;27.910;2022-07-19T06:16:05;101092.53;;;34.22;23.84
11523;BME280;40093;43.224;27.910;2022-07-19T06:18:32;101094.75;;;34.51;28.03
11523;BME280;40093;43.224;27.910;2022-07-19T06:21:01;101108.09;;;34.32;29.11
11523;BME280;40093;43.224;27.910;2022-07-19T06:23:28;101098.47;;;34.35;26.37
11523;BME280;40093;43.224;27.910;2022-07-19T06:25:55;101099.84;;;34.80;24.62
11523;BME280;40093;43.224;27.910;2022-07-19T06:28:23;101098.59;;;34.70;27.69
11523;BME280;40093;43.224;27.910;2022-07-19T06:30:52;101099.84;;;34.23;28.92
11523;BME280;40093;43.224;27.910;2022-07-19T06:33:19;101098.34;;;33.78;30.27
11523;BME280;40093;43.224;27.910;2022-07-19T06:35:46;101081.47;;;33.86;30.38
11523;BME280;40093;43.224;27.910;2022-07-19T06:38:13;101078.06;;;33.98;30.12
11523;BME280;40093;43.224;27.910;2022-07-19T06:40:40;101093.91;;;34.67;29.29
11523;BME280;40093;43.224;27.910;2022-07-19T06:43:09;101096.06;;;34.96;27.08
11523;BME280;40093;43.224;27.910;2022-07-19T06:45:36;101095.66;;;34.81;27.31
11523;BME280;40093;43.224;27.910;2022-07-19T06:48:05;101096.81;;;34.61;23.04
11523;BME280;40093;43.224;27.910;2022-07-19T06:50:32;101090.16;;;34.37;22.25
11523;BME280;40093;43.224;27.910;2022-07-19T06:52:59;101095.22;;;34.66;21.86
11523;BME280;40093;43.224;27.910;2022-07-19T06:55:26;101098.47;;;34.41;21.89
11523;BME280;40093;43.224;27.910;2022-07-19T06:57:53;101101.19;;;33.67;22.60
11523;BME280;40093;43.224;27.910;2022-07-19T07:00:20;101106.38;;;33.91;22.00
11523;BME280;40093;43.224;27.910;2022-07-19T07:02:48;101086.34;;;34.07;22.04
11523;BME280;40093;43.224;27.910;2022-07-19T07:05:17;101097.81;;;33.85;24.02
11523;BME280;40093;43.224;27.910;2022-07-19T07:07:44;101100.94;;;33.76;22.83
11523;BME280;40093;43.224;27.910;2022-07-19T07:10:13;101111.78;;;32.95;23.04
11523;BME280;40093;43.224;27.910;2022-07-19T07:12:40;101105.06;;;32.98;23.59
11523;BME280;40093;43.224;27.910;2022-07-19T07:15:09;101106.66;;;33.32;23.46
11523;BME280;40093;43.224;27.910;2022-07-19T07:17:36;101105.34;;;33.17;23.98
11523;BME280;40093;43.224;27.910;2022-07-19T07:20:05;101112.56;;;32.90;23.64
11523;BME280;40093;43.224;27.910;2022-07-19T07:22:34;101105.28;;;32.89;23.51
11523;BME280;40093;43.224;27.910;2022-07-19T07:25:01;101105.78;;;32.82;23.55
11523;BME280;40093;43.224;27.910;2022-07-19T07:27:28;101116.84;;;32.58;23.44
11523;BME280;40093;43.224;27.910;2022-07-19T07:29:55;101118.84;;;32.41;23.88
11523;BME280;40093;43.224;27.910;2022-07-19T07:32:22;101110.78;;;32.34;24.40
11523;BME280;40093;43.224;27.910;2022-07-19T07:34:52;101109.69;;;32.21;24.43
11523;BME280;40093;43.224;27.910;2022-07-19T07:37:20;101097.13;;;32.02;24.03
11523;BME280;40093;43.224;27.910;2022-07-19T07:39:48;101109.75;;;32.37;24.48
11523;BME280;40093;43.224;27.910;2022-07-19T07:42:15;101100.94;;;32.35;23.99
11523;BME280;40093;43.224;27.910;2022-07-19T07:44:42;101109.78;;;31.95;24.11
11523;BME280;40093;43.224;27.910;2022-07-19T07:47:09;101112.50;;;31.48;24.77
11523;BME280;40093;43.224;27.910;2022-07-19T07:49:36;101087.28;;;31.30;25.19
11523;BME280;40093;43.224;27.910;2022-07-19T07:52:04;101112.38;;;31.32;25.33
11523;BME280;40093;43.224;27.910;2022-07-19T07:54:32;101090.41;;;31.32;26.26
11523;BME280;40093;43.224;27.910;2022-07-19T07:57:00;101098.09;;;31.57;26.73
11523;BME280;40093;43.224;27.910;2022-07-19T07:59:27;101098.06;;;31.52;27.08
11523;BME280;40093;43.224;27.910;2022-07-19T08:01:54;101099.53;;;31.42;26.62
11523;BME280;40093;43.224;27.910;2022-07-19T08:04:21;101099.47;;;31.36;27.38
11523;BME280;40093;43.224;27.910;2022-07-19T08:06:48;101096.72;;;31.16;27.79
11523;BME280;40093;43.224;27.910;2022-07-19T08:09:15;101096.84;;;31.07;27.76
11523;BME280;40093;43.224;27.910;2022-07-19T08:11:42;101103.59;;;31.10;27.49
11523;BME280;40093;43.224;27.910;2022-07-19T08:14:10;101104.00;;;30.72;28.15
11523;BME280;40093;43.224;27.910;2022-07-19T08:16:37;101110.59;;;30.43;28.93
11523;BME280;40093;43.224;27.910;2022-07-19T08:19:04;101102.31;;;30.40;29.27
11523;BME280;40093;43.224;27.910;2022-07-19T08:21:31;101094.06;;;30.22;29.21
11523;BME280;40093;43.224;27.910;2022-07-19T08:23:58;101091.56;;;30.09;30.02
11523;BME280;40093;43.224;27.910;2022-07-19T08:26:25;101092.22;;;29.84;30.15
11523;BME280;40093;43.224;27.910;2022-07-19T08:28:52;101091.88;;;29.77;30.49
11523;BME280;40093;43.224;27.910;2022-07-19T08:31:20;101095.38;;;29.72;31.54
11523;BME280;40093;43.224;27.910;2022-07-19T08:33:47;101103.56;;;29.84;30.43
11523;BME280;40093;43.224;27.910;2022-07-19T08:36:14;101106.72;;;29.72;30.81
11523;BME280;40093;43.224;27.910;2022-07-19T08:38:44;101097.81;;;29.79;30.50
11523;BME280;40093;43.224;27.910;2022-07-19T08:41:13;101096.81;;;29.82;29.95
11523;BME280;40093;43.224;27.910;2022-07-19T08:43:40;101096.25;;;29.78;30.07
11523;BME280;40093;43.224;27.910;2022-07-19T08:46:07;101102.63;;;29.73;30.17
11523;BME280;40093;43.224;27.910;2022-07-19T08:48:37;101084.63;;;29.76;30.39
11523;BME280;40093;43.224;27.910;2022-07-19T08:51:05;101096.34;;;29.83;31.02
11523;BME280;40093;43.224;27.910;2022-07-19T08:53:33;101095.38;;;29.72;31.03
11523;BME280;40093;43.224;27.910;2022-07-19T08:56:04;101091.09;;;29.62;29.71
11523;BME280;40093;43.224;27.910;2022-07-19T08:58:51;101092.69;;;29.48;30.97
11523;BME280;40093;43.224;27.910;2022-07-19T09:01:17;101078.38;;;29.43;31.37
11523;BME280;40093;43.224;27.910;2022-07-19T09:04:06;101091.34;;;29.29;31.23
11523;BME280;40093;43.224;27.910;2022-07-19T09:06:38;101088.78;;;29.17;32.91
11523;BME280;40093;43.224;27.910;2022-07-19T09:09:05;101094.66;;;29.13;31.96
11523;BME280;40093;43.224;27.910;2022-07-19T09:11:33;101092.91;;;29.16;33.58
11523;BME280;40093;43.224;27.910;2022-07-19T09:14:05;101082.63;;;29.18;32.47
11523;BME280;40093;43.224;27.910;2022-07-19T09:16:50;101067.38;;;29.16;33.06
11523;BME280;40093;43.224;27.910;2022-07-19T09:19:19;101086.03;;;29.08;34.34
11523;BME280;40093;43.224;27.910;2022-07-19T09:21:54;101090.25;;;28.98;34.73
11523;BME280;40093;43.224;27.910;2022-07-19T09:24:22;101085.84;;;28.97;35.03
11523;BME280;40093;43.224;27.910;2022-07-19T09:27:11;101078.63;;;28.96;34.36
11523;BME280;40093;43.224;27.910;2022-07-19T09:29:39;101076.06;;;28.98;35.46
11523;BME280;40093;43.224;27.910;2022-07-19T09:32:10;101082.03;;;29.00;35.51
11523;BME280;40093;43.224;27.910;2022-07-19T09:34:40;101085.63;;;28.86;35.70
11523;BME280;40093;43.224;27.910;2022-07-19T09:37:12;101072.31;;;28.63;36.88
11523;BME280;40093;43.224;27.910;2022-07-19T09:39:39;101075.44;;;28.79;36.70
11523;BME280;40093;43.224;27.910;2022-07-19T09:42:10;101093.00;;;28.69;36.66
11523;BME280;40093;43.224;27.910;2022-07-19T09:44:37;101089.50;;;28.74;37.84
11523;BME280;40093;43.224;27.910;2022-07-19T09:47:05;101093.91;;;28.75;37.27
11523;BME280;40093;43.224;27.910;2022-07-19T09:49:32;101078.19;;;28.74;39.06
11523;BME280;40093;43.224;27.910;2022-07-19T09:52:00;101096.53;;;28.64;40.05
11523;BME280;40093;43.224;27.910;2022-07-19T09:54:29;101085.56;;;28.57;40.34
11523;BME280;40093;43.224;27.910;2022-07-19T09:56:58;101093.88;;;28.61;40.19
11523;BME280;40093;43.224;27.910;2022-07-19T09:59:26;101090.28;;;28.60;40.10
11523;BME280;40093;43.224;27.910;2022-07-19T10:01:55;101096.78;;;28.52;41.25
11523;BME280;40093;43.224;27.910;2022-07-19T10:04:23;101084.19;;;28.38;41.33
11523;BME280;40093;43.224;27.910;2022-07-19T10:06:51;101086.13;;;28.47;39.88
11523;BME280;40093;43.224;27.910;2022-07-19T10:09:22;101086.75;;;28.65;41.25
11523;BME280;40093;43.224;27.910;2022-07-19T10:11:51;101076.81;;;28.69;40.66
11523;BME280;40093;43.224;27.910;2022-07-19T10:14:18;101080.13;;;28.68;37.95
11523;BME280;40093;43.224;27.910;2022-07-19T10:17:05;101075.44;;;28.65;37.59
11523;BME280;40093;43.224;27.910;2022-07-19T10:19:38;101084.44;;;28.78;39.48
11523;BME280;40093;43.224;27.910;2022-07-19T10:22:06;101068.91;;;28.88;39.02
11523;BME280;40093;43.224;27.910;2022-07-19T10:24:57;101092.50;;;29.08;39.05
11523;BME280;40093;43.224;27.910;2022-07-19T10:27:39;101060.53;;;29.08;37.96
11523;BME280;40093;43.224;27.910;2022-07-19T10:30:17;101073.44;;;29.09;39.46
11523;BME280;40093;43.224;27.910;2022-07-19T10:32:47;101071.06;;;29.22;41.64
11523;BME280;40093;43.224;27.910;2022-07-19T10:35:15;101069.22;;;29.19;41.19
11523;BME280;40093;43.224;27.910;2022-07-19T10:37:44;101066.09;;;29.17;39.38
11523;BME280;40093;43.224;27.910;2022-07-19T10:40:13;101071.44;;;28.86;37.79
11523;BME280;40093;43.224;27.910;2022-07-19T10:43:04;101077.41;;;28.88;41.94
11523;BME280;40093;43.224;27.910;2022-07-19T10:45:32;101071.03;;;28.64;43.95
11523;BME280;40093;43.224;27.910;2022-07-19T10:48:10;101050.03;;;28.56;44.83
11523;BME280;40093;43.224;27.910;2022-07-19T10:50:57;101061.97;;;28.60;45.22
11523;BME280;40093;43.224;27.910;2022-07-19T10:54:01;101054.94;;;28.70;43.54
11523;BME280;40093;43.224;27.910;2022-07-19T10:56:57;101069.88;;;28.85;40.27
11523;BME280;40093;43.224;27.910;2022-07-19T10:59:41;101061.03;;;28.92;38.70
11523;BME280;40093;43.224;27.910;2022-07-19T11:02:21;101056.00;;;28.87;43.37
11523;BME280;40093;43.224;27.910;2022-07-19T11:04:49;101053.38;;;28.83;45.46
11523;BME280;40093;43.224;27.910;2022-07-19T11:07:19;101041.16;;;28.63;41.87
11523;BME280;40093;43.224;27.910;2022-07-19T11:09:51;101046.69;;;28.43;42.54
11523;BME280;40093;43.224;27.910;2022-07-19T11:12:36;101031.47;;;28.17;47.63
11523;BME280;40093;43.224;27.910;2022-07-19T11:15:07;101046.22;;;28.21;49.90
11523;BME280;40093;43.224;27.910;2022-07-19T11:17:34;101035.13;;;28.32;50.35
11523;BME280;40093;43.224;27.910;2022-07-19T11:20:05;101031.38;;;28.26;48.33
11523;BME280;40093;43.224;27.910;2022-07-19T11:22:34;101030.75;;;28.08;46.42
11523;BME280;40093;43.224;27.910;2022-07-19T11:25:02;101034.88;;;28.21;44.48
11523;BME280;40093;43.224;27.910;2022-07-19T11:27:32;101032.53;;;28.20;44.54
11523;BME280;40093;43.224;27.910;2022-07-19T11:30:02;101032.59;;;28.34;41.61
11523;BME280;40093;43.224;27.910;2022-07-19T11:32:29;101027.66;;;28.20;44.57
11523;BME280;40093;43.224;27.910;2022-07-19T11:34:58;101023.53;;;28.07;41.48
11523;BME280;40093;43.224;27.910;2022-07-19T11:37:29;101053.41;;;27.84;38.97
11523;BME280;40093;43.224;27.910;2022-07-19T11:39:57;101043.72;;;27.67;36.92
11523;BME280;40093;43.224;27.910;2022-07-19T11:42:29;101031.13;;;27.68;42.75
11523;BME280;40093;43.224;27.910;2022-07-19T11:44:57;101041.81;;;27.73;45.34
11523;BME280;40093;43.224;27.910;2022-07-19T11:47:24;101029.25;;;27.74;46.52
11523;BME280;40093;43.224;27.910;2022-07-19T11:49:51;101029.56;;;27.67;41.86
11523;BME280;40093;43.224;27.910;2022-07-19T11:52:18;101027.00;;;27.46;43.85
11523;BME280;40093;43.224;27.910;2022-07-19T11:54:58;101022.03;;;27.41;44.64
11523;BME280;40093;43.224;27.910;2022-07-19T11:57:26;101030.59;;;27.55;51.29
11523;BME280;40093;43.224;27.910;2022-07-19T11:59:53;101010.63;;;27.59;50.48
11523;BME280;40093;43.224;27.910;2022-07-19T12:02:21;101016.22;;;27.68;50.92
11523;BME280;40093;43.224;27.910;2022-07-19T12:04:49;101029.06;;;27.78;45.42
11523;BME280;40093;43.224;27.910;2022-07-19T12:07:16;101024.28;;;27.60;44.00
11523;BME280;40093;43.224;27.910;2022-07-19T12:09:44;101023.00;;;27.61;44.63
11523;BME280;40093;43.224;27.910;2022-07-19T12:12:13;101009.31;;;27.69;44.30
11523;BME280;40093;43.224;27.910;2022-07-19T12:14:40;101035.81;;;27.71;40.35
11523;BME280;40093;43.224;27.910;2022-07-19T12:17:13;101036.19;;;27.64;39.96
11523;BME280;40093;43.224;27.910;2022-07-19T12:19:43;101024.28;;;27.60;42.42
11523;BME280;40093;43.224;27.910;2022-07-19T12:22:27;101018.53;;;27.46;37.75
11523;BME280;40093;43.224;27.910;2022-07-19T12:24:54;101013.06;;;27.42;41.58
11523;BME280;40093;43.224;27.910;2022-07-19T12:27:21;101016.19;;;27.44;40.90
11523;BME280;40093;43.224;27.910;2022-07-19T12:29:54;101010.84;;;27.46;42.44
11523;BME280;40093;43.224;27.910;2022-07-19T12:32:29;101025.31;;;27.39;44.46
11523;BME280;40093;43.224;27.910;2022-07-19T12:35:00;101013.66;;;27.46;39.83
11523;BME280;40093;43.224;27.910;2022-07-19T12:37:28;101012.28;;;27.42;37.91
11523;BME280;40093;43.224;27.910;2022-07-19T12:39:57;100990.50;;;27.33;46.10
11523;BME280;40093;43.224;27.910;2022-07-19T12:42:26;101021.91;;;27.35;43.03
11523;BME280;40093;43.224;27.910;2022-07-19T12:44:53;101006.75;;;27.15;42.32
11523;BME280;40093;43.224;27.910;2022-07-19T12:47:20;101002.00;;;27.21;43.71
11523;BME280;40093;43.224;27.910;2022-07-19T12:49:48;100991.13;;;27.28;41.99